Latest Weather Observations for Yamba

IDN60801

Issued at 12:02 pm EDT Wednesday 1 April 2015 (issued every 30 minutes, with the page automatically refreshed every 10 minutes)

About weather observations | Map of weather stations | Latest weather observations for NSW | Other Formats
Station Details ID: 058012 Name: YAMBA PILOT STATION Lat: -29.43 Lon: 153.36 Height: 27.4 m
Data from the previous 72 hours. | See also: Recent months at Yamba
Date/Time
EDT
Temp
°C
App
Temp
°C
Dew
Point
Rel
Hum
%
Delta-T
°C
Wind Press
QNH
hPa
Press
MSL
hPa
Rain
since 9 am
mm
Dir
 
Spd
km/h
Gust
km/h
Spd
kts
Gust
kts
01/12:00pm 24.2 25.7 21.3 84 1.9 SE 15 20 8 11 1023.7 1023.6 0.0
01/11:30am 23.5 24.9 20.4 83 2.0 S 13 17 7 9 1024.1 1024.0 0.0
01/11:00am 22.7 25.9 21.3 92 0.9 WSW 6 9 3 5 1024.2 1024.1 0.0
01/10:30am 21.4 24.1 20.7 96 0.5 WSW 7 11 4 6 1024.4 1024.3 0.0
01/10:00am 20.8 23.2 20.8 100 0.0 W 9 13 5 7 1024.6 1024.5 0.0
01/09:30am 20.2 22.9 20.2 100 0.0 SW 6 13 3 7 1024.5 1024.4 0.0
01/09:00am 19.8 21.3 19.8 100 0.0 WSW 11 15 6 8 1024.3 1024.2 47.6
01/08:30am 19.3 21.4 19.3 100 0.0 SW 7 13 4 7 1024.1 1024.0 47.6
01/08:00am 19.0 20.2 19.0 100 0.0 W 11 15 6 8 1024.0 1023.9 47.0
01/07:30am 18.8 20.3 18.8 100 0.0 W 9 11 5 6 1023.3 1023.2 47.0
01/07:00am 18.7 20.1 18.7 100 0.0 SSW 9 11 5 6 1023.1 1023.0 47.0
01/06:30am 18.7 20.5 18.7 100 0.0 WSW 7 11 4 6 1022.8 1022.7 47.0
01/06:00am 18.9 20.8 18.9 100 0.0 WSW 7 11 4 6 1022.4 1022.3 47.0
01/05:30am 18.9 20.8 18.9 100 0.0 WSW 7 11 4 6 1022.0 1021.9 46.8
01/05:00am 19.1 20.7 19.1 100 0.0 WNW 9 15 5 8 1022.3 1022.2 45.6
01/04:30am 18.9 20.8 18.9 100 0.0 SW 7 13 4 7 1021.9 1021.8 42.8
01/04:00am 19.1 21.1 19.1 100 0.0 SW 7 11 4 6 1021.9 1021.8 42.8
01/03:30am 19.2 20.8 19.2 100 0.0 WSW 9 13 5 7 1022.0 1021.9 42.4
01/03:00am 19.5 20.9 19.5 100 0.0 W 11 13 6 7 1022.3 1022.2 42.4
01/02:30am 19.7 21.6 19.7 100 0.0 W 9 13 5 7 1022.1 1022.0 42.4
01/02:00am 20.1 23.5 20.1 100 0.0 E 2 7 1 4 1022.7 1022.6 42.4
01/01:30am 19.8 22.1 19.8 100 0.0 SSE 7 15 4 8 1023.2 1023.1 41.8
01/01:00am 19.6 21.8 19.6 100 0.0 SSW 7 9 4 5 1023.4 1023.3 41.0
01/12:30am 19.5 20.1 19.5 100 0.0 ESE 15 22 8 12 1023.6 1023.5 34.8
01/12:00am 19.7 20.8 19.7 100 0.0 E 13 20 7 11 1023.9 1023.8 24.4
 
Date/Time
EDT
Temp
°C
App
Temp
°C
Dew
Point
Rel
Hum
%
Delta-T
°C
Wind Press
QNH
hPa
Press
MSL
hPa
Rain
since 9 am
mm
Dir
 
Spd
km/h
Gust
km/h
Spd
kts
Gust
kts
31/11:30pm 20.8 18.5 20.1 96 0.4 ESE 32 44 17 24 1023.5 1023.4 0.6
31/11:20pm 21.3 20.9 19.4 89 1.2 ESE 20 43 11 23 1023.5 1023.4 0.6
31/11:00pm 22.0 24.4 19.7 87 1.5 ESE 6 9 3 5 1023.7 1023.6 0.6
31/10:30pm 22.2 23.3 18.8 81 2.1 E 11 17 6 9 1023.7 1023.6 0.6
31/10:00pm 22.6 23.0 19.8 84 1.8 E 17 24 9 13 1023.6 1023.5 0.6
31/09:30pm 22.6 22.6 19.8 84 1.8 SE 19 26 10 14 1023.7 1023.6 0.6
31/09:00pm 22.5 22.6 19.9 85 1.7 ESE 19 26 10 14 1023.8 1023.7 0.6
31/08:30pm 22.3 22.5 19.3 83 1.9 ESE 17 26 9 14 1023.3 1023.2 0.6
31/08:00pm 21.9 21.7 18.5 81 2.1 ESE 17 26 9 14 1023.0 1022.9 0.6
31/07:30pm 21.6 21.2 17.2 76 2.7 ESE 15 24 8 13 1022.9 1022.8 0.6
31/07:00pm 21.6 21.0 18.4 82 2.0 ESE 19 24 10 13 1022.7 1022.6 0.6
31/06:30pm 21.3 18.7 18.7 85 1.6 ESE 30 41 16 22 1022.4 1022.3 0.6
31/06:00pm 23.0 22.8 20.5 86 1.6 SSE 22 30 12 16 1022.1 1022.0 0.6
31/05:30pm 22.8 22.3 20.0 84 1.8 SE 22 28 12 15 1021.9 1021.8 0.6
31/05:00pm 23.4 24.1 20.5 84 1.9 SE 17 22 9 12 1021.9 1021.8 0.6
31/04:30pm 23.4 24.2 19.8 80 2.3 SSE 15 20 8 11 1021.8 1021.7 0.6
31/04:00pm 23.4 23.6 19.3 78 2.6 SE 17 20 9 11 1021.7 1021.6 0.6
31/03:30pm 23.7 24.8 19.6 78 2.6 SE 13 17 7 9 1021.9 1021.8 0.6
31/03:00pm 23.7 25.2 18.8 74 3.1 ESE 9 11 5 6 1022.2 1022.1 0.6
31/02:30pm 23.5 25.0 17.7 70 3.6 NE 6 7 3 4 1022.3 1022.2 0.6
31/02:00pm 23.6 25.2 17.8 70 3.6 ESE 6 7 3 4 1022.5 1022.4 0.6
31/01:30pm 23.6 25.6 18.7 74 3.1 N 6 7 3 4 1022.9 1022.8 0.6
31/01:00pm 23.0 25.5 19.0 78 2.5 NNW 4 7 2 4 1023.5 1023.4 0.6
31/12:30pm 22.0 24.2 19.2 84 1.8 NNW 6 11 3 6 1023.9 1023.8 0.6
31/12:00pm 22.6 25.6 21.2 92 0.9 N 7 13 4 7 1024.2 1024.1 0.6
31/11:30am 22.2 25.3 21.0 93 0.8 N 6 11 3 6 1024.6 1024.5 0.6
31/11:00am 21.8 24.1 20.6 93 0.8 ENE 9 11 5 6 1024.9 1024.8 0.4
31/10:30am 22.3 24.9 20.4 89 1.2 N 7 11 4 6 1024.8 1024.7 0.0
31/10:00am 22.4 24.9 20.3 88 1.4 E 7 9 4 5 1024.4 1024.3 0.0
31/09:30am 21.5 22.5 19.4 88 1.3 SE 13 17 7 9 1024.2 1024.1 0.0
31/09:00am 21.5 23.7 20.5 94 0.6 S 9 13 5 7 1023.8 1023.7 0.0
31/08:30am 20.6 22.7 20.1 97 0.3 SSW 9 13 5 7 1023.2 1023.1 0.0
31/08:00am 20.2 22.6 20.0 99 0.1 SW 7 11 4 6 1022.9 1022.8 0.0
31/07:30am 20.1 22.4 19.9 99 0.1 SW 7 11 4 6 1022.7 1022.6 0.0
31/07:00am 20.1 22.4 19.9 99 0.1 SW 7 11 4 6 1022.4 1022.3 0.0
31/06:30am 20.1 22.0 19.8 98 0.2 SSW 9 11 5 6 1022.1 1022.0 0.0
31/06:00am 20.0 22.2 19.5 97 0.3 WSW 7 11 4 6 1022.2 1022.1 0.0
31/05:30am 20.1 21.8 19.4 96 0.4 SW 9 13 5 7 1022.1 1022.0 0.0
31/05:00am 20.1 22.1 19.1 94 0.6 SW 7 11 4 6 1022.0 1021.9 0.0
31/04:30am 20.3 22.0 19.3 94 0.6 WSW 9 13 5 7 1022.1 1022.0 0.0
31/04:00am 20.6 22.2 19.1 91 0.9 SW 9 11 5 6 1022.2 1022.1 0.0
31/03:30am 21.4 23.5 19.3 88 1.3 SW 7 11 4 6 1022.4 1022.3 0.0
31/03:00am 21.6 23.0 18.6 83 1.9 SW 9 13 5 7 1022.4 1022.3 0.0
31/02:30am 21.7 23.3 18.3 81 2.1 WSW 7 11 4 6 1022.6 1022.5 0.0
31/02:00am 22.0 23.3 18.4 80 2.2 WSW 9 13 5 7 1022.9 1022.8 0.0
31/01:30am 23.1 24.6 18.0 73 3.2 N 7 11 4 6 1023.0 1022.9 0.0
31/01:00am 23.6 24.6 17.8 70 3.6 NNE 9 17 5 9 1023.1 1023.0 0.0
31/12:30am 23.3 24.3 17.7 71 3.5 N 9 17 5 9 1023.3 1023.2 0.0
31/12:00am 23.7 24.5 18.1 71 3.5 NNE 11 19 6 10 1023.2 1023.1 0.0
 
Date/Time
EDT
Temp
°C
App
Temp
°C
Dew
Point
Rel
Hum
%
Delta-T
°C
Wind Press
QNH
hPa
Press
MSL
hPa
Rain
since 9 am
mm
Dir
 
Spd
km/h
Gust
km/h
Spd
kts
Gust
kts
30/11:30pm 23.8 24.8 18.7 73 3.2 NNE 11 20 6 11 1023.2 1023.1 0.0
30/11:00pm 23.7 24.8 18.1 71 3.5 NNE 9 19 5 10 1023.6 1023.5 0.0
30/10:30pm 24.0 25.0 18.6 72 3.4 NNE 11 17 6 9 1023.8 1023.7 0.0
30/10:00pm 24.1 25.4 19.2 74 3.1 NE 11 20 6 11 1023.7 1023.6 0.0
30/09:30pm 24.1 25.0 18.5 71 3.5 NE 11 19 6 10 1023.6 1023.5 0.0
30/09:00pm 24.0 25.1 18.9 73 3.2 NNE 11 20 6 11 1023.3 1023.2 0.0
30/08:30pm 23.8 25.4 19.1 75 3.0 N 9 19 5 10 1023.2 1023.1 0.0
30/08:00pm 23.8 25.1 19.3 76 2.9 NNE 11 20 6 11 1023.0 1022.9 0.0
30/07:30pm 23.9 25.1 19.0 74 3.1 NNE 11 20 6 11 1022.5 1022.4 0.0
30/07:00pm 24.0 24.8 19.1 74 3.1 N 13 24 7 13 1022.2 1022.1 0.0
30/06:30pm 24.1 25.4 19.4 75 3.0 N 11 20 6 11 1022.0 1021.9 0.0
30/06:00pm 24.5 25.8 19.3 73 3.3 N 11 20 6 11 1021.7 1021.6 0.0
30/05:30pm 25.4 27.4 20.0 72 3.5 N 9 17 5 9 1021.5 1021.4 0.0
30/05:00pm 26.8 28.6 20.4 68 4.2 N 11 20 6 11 1021.0 1020.9 0.0
30/04:30pm 26.7 28.8 21.0 71 3.8 N 11 20 6 11 1021.1 1021.0 0.0
30/04:00pm 26.2 28.2 20.7 71 3.6 N 11 20 6 11 1021.2 1021.1 0.0
30/03:30pm 27.0 30.0 22.0 74 3.4 N 9 19 5 10 1021.1 1021.0 0.0
30/03:00pm 25.9 28.2 20.7 73 3.4 N 9 19 5 10 1021.4 1021.3 0.0
30/02:30pm 25.8 28.8 21.2 76 3.0 N 7 13 4 7 1021.6 1021.5 0.0
30/02:00pm 26.0 28.7 21.4 76 3.0 N 9 19 5 10 1021.7 1021.6 0.0
30/01:30pm 26.3 29.4 21.5 75 3.2 N 7 13 4 7 1022.2 1022.1 0.0
30/01:00pm 26.0 28.4 20.8 73 3.4 NNW 9 15 5 8 1022.6 1022.5 0.0
30/12:30pm 26.5 28.9 21.5 74 3.3 NNW 11 19 6 10 1022.9 1022.8 0.0
30/12:00pm 25.6 28.1 21.1 76 3.0 N 9 15 5 8 1023.4 1023.3 0.0
30/11:30am 25.6 27.8 20.4 73 3.4 NNW 9 15 5 8 1023.8 1023.7 0.0
30/11:00am 26.0 28.3 20.6 72 3.5 NW 9 13 5 7 1024.0 1023.9 0.0
30/10:30am 25.6 27.6 21.5 78 2.7 WNW 13 17 7 9 1024.2 1024.1 0.0
30/10:00am 23.6 26.0 20.9 85 1.8 W 9 15 5 8 1024.2 1024.1 0.0
30/09:30am 22.8 25.1 20.7 88 1.4 WNW 9 15 5 8 1024.2 1024.1 0.0
30/09:00am 21.3 22.9 19.9 92 0.9 W 11 17 6 9 1024.0 1023.9 0.0
30/08:30am 20.5 22.5 20.0 97 0.3 W 9 11 5 6 1023.6 1023.5 0.0
30/08:00am 20.2 21.4 19.9 98 0.2 W 13 15 7 8 1023.1 1023.0 0.0
30/07:30am 19.6 20.3 18.9 96 0.4 WSW 13 15 7 8 1022.9 1022.8 0.0
30/07:00am 19.8 21.0 19.1 96 0.4 W 11 13 6 7 1022.5 1022.4 0.0
30/06:30am 19.9 21.1 19.1 95 0.5 WNW 11 15 6 8 1022.3 1022.2 0.0
30/06:00am 19.9 21.0 18.9 94 0.6 WNW 11 15 6 8 1022.2 1022.1 0.0
30/05:30am 20.1 20.8 18.8 92 0.8 W 13 15 7 8 1022.0 1021.9 0.0
30/05:00am 20.3 21.8 19.0 92 0.8 W 9 11 5 6 1021.7 1021.6 0.0
30/04:30am 20.9 23.1 19.6 92 0.8 NW 7 13 4 7 1021.7 1021.6 0.0
30/04:00am 21.0 22.8 19.5 91 1.0 NW 9 11 5 6 1021.8 1021.7 0.0
30/03:30am 20.9 22.9 19.2 90 1.1 NW 7 11 4 6 1021.8 1021.7 0.0
30/03:00am 20.8 22.7 18.9 89 1.2 NW 7 11 4 6 1022.0 1021.9 0.0
30/02:30am 20.9 22.4 18.8 88 1.3 NNW 9 11 5 6 1022.1 1022.0 0.0
30/02:00am 21.0 22.5 18.9 88 1.3 NNW 9 11 5 6 1022.3 1022.2 0.0
30/01:30am 21.4 23.6 19.7 90 1.1 NNW 7 11 4 6 1022.5 1022.4 0.0
30/01:00am 21.4 22.7 19.3 88 1.3 NNW 11 17 6 9 1022.7 1022.6 0.0
30/12:30am 21.6 23.3 19.3 87 1.5 NNW 9 17 5 9 1022.7 1022.6 0.0
30/12:00am 22.1 24.0 19.8 87 1.5 NNW 9 13 5 7 1022.6 1022.5 0.0
 
Date/Time
EDT
Temp
°C
App
Temp
°C
Dew
Point
Rel
Hum
%
Delta-T
°C
Wind Press
QNH
hPa
Press
MSL
hPa
Rain
since 9 am
mm
Dir
 
Spd
km/h
Gust
km/h
Spd
kts
Gust
kts
29/11:30pm 22.3 23.8 19.7 85 1.7 NNW 11 15 6 8 1022.6 1022.5 0.0
29/11:00pm 22.5 24.1 19.9 85 1.7 NNW 11 17 6 9 1022.7 1022.6 0.0
29/10:30pm 22.5 24.0 19.7 84 1.8 NNW 11 17 6 9 1022.9 1022.8 0.0
29/10:00pm 23.0 24.4 19.6 81 2.2 NNW 11 17 6 9 1023.1 1023.0 0.0
29/09:30pm 23.3 25.1 19.5 79 2.4 N 9 17 5 9 1022.9 1022.8 0.0
29/09:00pm 23.5 25.3 19.6 79 2.5 NNW 9 17 5 9 1022.8 1022.7 0.0
29/08:30pm 23.6 25.2 19.9 80 2.4 NNW 11 20 6 11 1022.4 1022.3 0.0
29/08:00pm 23.7 25.0 20.2 81 2.3 N 13 28 7 15 1022.0 1021.9 0.0
29/07:30pm 23.7 24.6 20.0 80 2.4 N 15 24 8 13 1021.6 1021.5 0.0
29/07:00pm 23.9 24.8 20.0 79 2.5 N 15 24 8 13 1021.4 1021.3 0.0
29/06:30pm 24.1 25.3 20.0 78 2.7 N 13 24 7 13 1021.0 1020.9 0.0
29/06:00pm 25.1 26.2 20.4 75 3.1 N 15 24 8 13 1021.0 1020.9 0.0
29/05:30pm 25.2 26.4 19.8 72 3.5 NNE 13 20 7 11 1020.9 1020.8 0.0
29/05:00pm 25.7 27.1 20.3 72 3.5 NNE 13 20 7 11 1020.8 1020.7 0.0
29/04:30pm 26.0 27.6 19.9 69 4.0 NNE 11 20 6 11 1020.6 1020.5 0.0
29/04:00pm 26.6 28.4 20.4 69 4.1 NNE 11 19 6 10 1020.9 1020.8 0.0
29/03:30pm 26.9 29.3 21.6 72 3.5 NE 11 17 6 9 1021.1 1021.0 0.0
29/03:00pm 26.9 29.2 21.4 72 3.7 NNE 11 17 6 9 1021.2 1021.1 0.0
29/02:30pm 26.9 28.9 20.7 69 4.1 NNE 11 20 6 11 1021.4 1021.3 0.0
29/02:00pm 27.1 29.7 21.2 70 3.9 NNE 9 17 5 9 1021.8 1021.7 0.0
29/01:30pm 27.1 30.0 21.8 73 3.5 NE 9 17 5 9 1022.3 1022.2 0.0
29/01:00pm 26.5 29.0 21.7 75 3.2 NE 11 17 6 9 1022.5 1022.4 0.0
29/12:30pm 26.2 28.8 21.2 74 3.3 NE 9 15 5 8 1022.8 1022.7 0.0

Other Formats:

Comma delimited format used in spreadsheet applications
http://www.bom.gov.au/fwo/IDN60801/IDN60801.94589.axf

JavaScript Object Notation format (JSON) in row-major order
http://www.bom.gov.au/fwo/IDN60801/IDN60801.94589.json